createdAt,value
2018-01-14T00:01:56.893Z,20.60
2018-01-14T00:04:27.047Z,21.80
2018-01-14T00:06:57.180Z,19.33
2018-01-14T00:09:27.214Z,23.00
2018-01-14T00:11:57.311Z,23.17
2018-01-14T00:14:28.056Z,27.77
2018-01-14T00:16:59.369Z,22.00
2018-01-14T00:19:29.515Z,22.13
2018-01-14T00:21:59.513Z,21.73
2018-01-14T00:24:29.924Z,21.30
2018-01-14T00:27:00.873Z,20.87
2018-01-14T00:29:30.895Z,23.27
2018-01-14T00:32:01.253Z,20.90
2018-01-14T00:34:31.364Z,18.90
2018-01-14T00:37:01.689Z,22.80
2018-01-14T00:39:32.304Z,23.30
2018-01-14T00:42:02.321Z,24.30
2018-01-14T00:44:33.870Z,25.27
2018-01-14T00:47:03.877Z,26.73
2018-01-14T00:49:33.849Z,26.30
2018-01-14T00:52:04.960Z,22.40
2018-01-14T00:54:35.121Z,18.90
2018-01-14T00:57:05.975Z,23.43
2018-01-14T00:59:36.501Z,20.63
2018-01-14T01:02:07.500Z,21.53
2018-01-14T01:04:37.580Z,16.50
2018-01-14T01:07:08.412Z,20.57
2018-01-14T01:09:38.811Z,18.30
2018-01-14T01:12:09.590Z,20.00
2018-01-14T01:14:41.105Z,18.27
2018-01-14T01:17:11.704Z,23.00
2018-01-14T01:19:41.687Z,14.67
2018-01-14T01:22:11.709Z,25.10
2018-01-14T01:24:41.990Z,25.53
2018-01-14T01:27:12.356Z,19.20
2018-01-14T01:29:42.573Z,19.47
2018-01-14T01:32:12.853Z,22.13
2018-01-14T01:34:44.193Z,19.37
2018-01-14T01:37:14.982Z,16.93
2018-01-14T01:39:45.244Z,21.20
2018-01-14T01:42:15.772Z,21.33
2018-01-14T01:44:46.621Z,19.70
2018-01-14T01:47:17.148Z,18.43
2018-01-14T01:49:48.314Z,23.63
2018-01-14T01:52:18.709Z,25.43
2018-01-14T01:54:50.583Z,19.40
2018-01-14T01:57:21.841Z,20.53
2018-01-14T01:59:51.874Z,24.57
2018-01-14T02:02:21.907Z,23.57
2018-01-14T02:04:52.339Z,23.97
2018-01-14T02:07:22.765Z,19.83
2018-01-14T02:09:52.756Z,20.73
2018-01-14T02:12:22.740Z,25.30
2018-01-14T02:14:53.169Z,23.60
2018-01-14T02:17:23.943Z,20.20
2018-01-14T02:19:54.011Z,21.17
2018-01-14T02:22:25.238Z,27.40
2018-01-14T02:24:56.213Z,20.73
2018-01-14T02:27:26.581Z,22.07
2018-01-14T02:29:56.656Z,22.67
2018-01-14T02:32:26.677Z,20.17
2018-01-14T02:34:56.792Z,28.30
2018-01-14T02:37:27.126Z,24.50
2018-01-14T02:39:57.921Z,22.37
2018-01-14T02:42:28.184Z,23.17
2018-01-14T02:44:58.234Z,25.70
2018-01-14T02:47:28.811Z,30.00
2018-01-14T02:49:59.522Z,20.10
2018-01-14T02:52:30.295Z,29.47
2018-01-14T02:55:00.689Z,23.47
2018-01-14T02:57:32.100Z,21.00
2018-01-14T03:00:02.239Z,24.67
2018-01-14T03:02:32.391Z,25.37
2018-01-14T03:05:02.472Z,26.27
2018-01-14T03:07:34.224Z,25.63
2018-01-14T03:10:05.184Z,20.60
2018-01-14T03:12:35.544Z,26.13
2018-01-14T03:15:05.245Z,20.67
2018-01-14T03:17:35.263Z,25.37
2018-01-14T03:20:05.338Z,25.70
2018-01-14T03:22:36.717Z,27.73
2018-01-14T03:25:06.866Z,25.43
2018-01-14T03:27:36.897Z,23.43
2018-01-14T03:30:06.885Z,23.70
2018-01-14T03:32:37.076Z,25.80
2018-01-14T03:35:07.257Z,22.77
2018-01-14T03:37:37.589Z,23.00
2018-01-14T03:40:07.661Z,28.20
2018-01-14T03:42:38.841Z,22.57
2018-01-14T03:45:10.705Z,22.10
2018-01-14T03:47:40.868Z,30.17
2018-01-14T03:50:11.487Z,21.83
2018-01-14T03:52:42.445Z,25.63
2018-01-14T03:55:13.292Z,25.63
2018-01-14T03:57:43.464Z,24.73
2018-01-14T04:00:13.856Z,24.50
2018-01-14T04:02:43.885Z,25.90
2018-01-14T04:05:13.892Z,25.53
2018-01-14T04:07:43.943Z,23.43
2018-01-14T04:10:14.023Z,24.30
2018-01-14T04:12:44.314Z,24.13
2018-01-14T04:15:16.173Z,28.80
2018-01-14T04:17:46.691Z,27.67
2018-01-14T04:20:17.819Z,23.53
2018-01-14T04:22:48.645Z,25.70
2018-01-14T04:25:19.569Z,26.17
2018-01-14T04:27:49.635Z,21.20
2018-01-14T04:30:20.408Z,23.20
2018-01-14T04:32:51.166Z,33.63
2018-01-14T04:35:21.405Z,27.53
2018-01-14T04:37:52.938Z,27.60
2018-01-14T04:40:24.168Z,27.30
2018-01-14T04:42:54.865Z,22.83
2018-01-14T04:45:26.305Z,27.27
2018-01-14T04:47:56.632Z,25.30
2018-01-14T04:50:27.244Z,33.47
2018-01-14T04:52:58.504Z,20.37
2018-01-14T04:55:29.443Z,24.77
2018-01-14T04:57:59.509Z,22.57
2018-01-14T05:00:30.036Z,20.40
2018-01-14T05:03:06.352Z,25.80
2018-01-14T05:05:36.620Z,20.57
2018-01-14T05:08:06.949Z,18.57
2018-01-14T05:10:37.938Z,21.77
2018-01-14T05:13:08.412Z,18.80
2018-01-14T05:15:38.780Z,20.80
2018-01-14T05:18:09.611Z,29.67
2018-01-14T05:20:40.920Z,28.27
2018-01-14T05:23:10.949Z,19.73
2018-01-14T05:25:41.262Z,25.27
2018-01-14T05:28:11.431Z,22.23
2018-01-14T05:30:41.690Z,19.40
2018-01-14T05:33:12.004Z,24.20
2018-01-14T05:35:42.252Z,19.80
2018-01-14T05:38:12.521Z,25.27
2018-01-14T05:40:42.784Z,28.30
2018-01-14T05:43:13.125Z,18.57
2018-01-14T05:45:43.440Z,21.60
2018-01-14T05:48:15.157Z,19.57
2018-01-14T05:50:45.149Z,26.00
2018-01-14T05:53:16.044Z,15.30
2018-01-14T05:55:46.576Z,21.17
2018-01-14T06:02:53.658Z,20.97
2018-01-14T06:05:23.666Z,18.33
2018-01-14T06:07:54.660Z,20.33
2018-01-14T06:10:25.956Z,22.50
2018-01-14T06:12:56.148Z,25.90
2018-01-14T06:15:26.733Z,17.20
2018-01-14T06:17:57.366Z,24.60
2018-01-14T06:20:27.624Z,18.37
2018-01-14T06:22:58.396Z,19.00
2018-01-14T06:25:29.014Z,28.07
2018-01-14T06:27:59.381Z,19.80
2018-01-14T06:30:29.803Z,22.70
2018-01-14T06:32:59.833Z,18.90
2018-01-14T06:35:30.341Z,21.47
2018-01-14T06:38:00.937Z,21.17
2018-01-14T06:40:31.932Z,20.60
2018-01-14T06:43:03.034Z,18.80
2018-01-14T06:45:33.543Z,17.37
2018-01-14T06:48:04.228Z,23.33
2018-01-14T06:50:35.899Z,21.73
2018-01-14T06:53:06.244Z,19.20
2018-01-14T06:55:36.525Z,20.03
2018-01-14T06:58:06.945Z,24.03
2018-01-14T07:00:37.418Z,21.90
2018-01-14T07:03:08.528Z,15.63
2018-01-14T07:05:39.344Z,20.13
2018-01-14T07:08:10.251Z,19.00
2018-01-14T07:10:40.833Z,19.53
2018-01-14T07:13:11.159Z,17.83
2018-01-14T07:15:42.130Z,20.77
2018-01-14T07:18:13.312Z,22.53
2018-01-14T07:20:43.680Z,18.47
2018-01-14T07:25:35.314Z,19.80
2018-01-14T07:28:13.844Z,17.23
2018-01-14T07:30:52.048Z,22.40
2018-01-14T07:33:23.463Z,22.90
2018-01-14T07:35:59.612Z,20.40
2018-01-14T07:38:37.591Z,19.67
2018-01-14T07:41:07.998Z,20.13
2018-01-14T07:43:38.372Z,18.17
2018-01-14T07:46:08.383Z,18.73
2018-01-14T07:48:38.431Z,21.00
2018-01-14T07:51:08.503Z,19.23
2018-01-14T07:53:38.842Z,19.40
2018-01-14T07:56:08.909Z,19.33
2018-01-14T07:58:39.068Z,18.83
2018-01-14T08:01:09.140Z,17.43
2018-01-14T08:03:40.265Z,17.77
2018-01-14T08:06:10.681Z,19.07
2018-01-14T08:08:41.129Z,28.33
2018-01-14T08:11:12.237Z,17.13
2018-01-14T08:13:42.564Z,17.00
2018-01-14T08:16:13.712Z,19.50
2018-01-14T08:18:44.437Z,16.53
2018-01-14T08:21:14.810Z,19.27
2018-01-14T08:23:44.845Z,18.10
2018-01-14T08:26:14.991Z,15.70
2018-01-14T08:28:45.487Z,22.40
2018-01-14T08:31:16.076Z,19.67
2018-01-14T08:33:46.296Z,25.30
2018-01-14T08:36:16.293Z,19.20
2018-01-14T08:38:46.519Z,18.13
2018-01-14T08:41:16.648Z,18.30
2018-01-14T08:43:46.669Z,21.50
2018-01-14T08:46:17.149Z,16.63
2018-01-14T08:48:47.549Z,19.50
2018-01-14T08:51:17.703Z,21.23
2018-01-14T08:53:47.725Z,14.83
2018-01-14T08:56:18.821Z,16.43
2018-01-14T08:58:50.332Z,17.57
2018-01-14T09:01:26.012Z,25.23
2018-01-14T09:03:56.956Z,16.27
2018-01-14T09:06:28.700Z,20.50
2018-01-14T09:08:59.900Z,13.43
2018-01-14T09:11:30.548Z,20.40
2018-01-14T09:14:00.726Z,17.47
2018-01-14T09:16:30.862Z,22.30
2018-01-14T09:19:01.532Z,19.73
2018-01-14T09:21:32.247Z,16.83
2018-01-14T09:24:02.386Z,16.97
2018-01-14T09:26:34.216Z,20.13
2018-01-14T09:29:04.328Z,18.50
2018-01-14T09:31:34.592Z,18.93
2018-01-14T09:34:05.916Z,15.63
2018-01-14T09:36:37.872Z,17.10
2018-01-14T09:39:08.800Z,18.63
2018-01-14T09:41:38.842Z,15.73
2018-01-14T09:44:09.890Z,14.77
2018-01-14T09:46:40.333Z,14.37
2018-01-14T09:49:10.984Z,17.67
2018-01-14T09:51:41.361Z,18.87
2018-01-14T09:54:12.216Z,13.80
2018-01-14T09:56:42.593Z,17.23
2018-01-14T09:59:12.990Z,18.00
2018-01-14T10:01:44.522Z,19.10
2018-01-14T10:04:14.969Z,12.50
2018-01-14T10:06:45.447Z,16.37
2018-01-14T10:09:15.672Z,16.13
2018-01-14T10:11:46.236Z,14.87
2018-01-14T10:14:17.700Z,16.10
2018-01-14T10:16:49.381Z,14.93
2018-01-14T10:19:19.984Z,14.93
2018-01-14T10:21:50.606Z,16.43
2018-01-14T10:24:22.323Z,16.70
2018-01-14T10:26:53.048Z,15.27
2018-01-14T10:29:24.041Z,14.87
2018-01-14T10:31:55.309Z,14.47
2018-01-14T10:34:25.733Z,19.37
2018-01-14T10:36:57.063Z,16.03
2018-01-14T10:39:27.300Z,19.10
2018-01-14T10:41:58.316Z,15.57
2018-01-14T10:44:28.627Z,13.83
2018-01-14T10:47:00.205Z,14.00
2018-01-14T10:49:30.373Z,17.67
2018-01-14T10:52:00.907Z,13.77
2018-01-14T10:54:31.489Z,16.07
2018-01-14T10:57:01.877Z,12.07
2018-01-14T10:59:32.017Z,15.97
2018-01-14T11:02:02.463Z,15.53
2018-01-14T11:04:32.945Z,15.90
2018-01-14T11:07:03.179Z,15.60
2018-01-14T11:09:34.876Z,12.23
2018-01-14T11:12:05.697Z,14.53
2018-01-14T11:14:36.022Z,12.17
2018-01-14T11:17:06.529Z,12.87
2018-01-14T11:19:37.726Z,14.13
2018-01-14T11:22:07.914Z,14.07
2018-01-14T11:24:38.591Z,15.67
2018-01-14T11:27:09.210Z,16.77
2018-01-14T11:29:41.114Z,16.33
2018-01-14T11:32:12.261Z,12.77
2018-01-14T11:34:44.005Z,11.50
2018-01-14T11:37:14.316Z,16.33
2018-01-14T11:39:44.938Z,13.47
2018-01-14T11:42:16.985Z,12.70
2018-01-14T11:44:47.388Z,12.60
2018-01-14T11:47:17.634Z,11.23
2018-01-14T11:49:47.866Z,13.00
2018-01-14T11:52:18.198Z,14.07
2018-01-14T11:54:48.705Z,12.60
2018-01-14T11:57:19.314Z,13.07
2018-01-14T11:59:49.488Z,17.93
2018-01-14T12:02:19.745Z,8.20
2018-01-14T12:04:50.477Z,11.30
2018-01-14T12:07:20.729Z,11.37
2018-01-14T12:09:51.332Z,11.13
2018-01-14T12:12:21.923Z,11.70
2018-01-14T12:14:52.018Z,12.07
2018-01-14T12:17:22.572Z,17.70
2018-01-14T12:19:53.391Z,16.20
2018-01-14T12:22:23.605Z,11.93
2018-01-14T12:24:55.171Z,13.30
2018-01-14T12:27:28.199Z,10.97
2018-01-14T12:29:59.257Z,12.10
2018-01-14T12:32:30.272Z,11.17
2018-01-14T12:35:01.154Z,12.67
2018-01-14T12:37:32.452Z,12.67
2018-01-14T12:40:03.419Z,13.07
2018-01-14T12:42:33.820Z,14.00
2018-01-14T12:45:05.239Z,13.13
2018-01-14T12:47:35.610Z,11.17
2018-01-14T12:50:05.757Z,13.77
2018-01-14T12:52:36.541Z,10.47
2018-01-14T12:55:07.573Z,13.67
2018-01-14T12:57:38.567Z,11.07
2018-01-14T13:00:09.687Z,11.10
2018-01-14T13:02:40.198Z,12.00
2018-01-14T13:05:13.018Z,11.40
2018-01-14T13:07:45.854Z,9.37
2018-01-14T13:10:19.214Z,11.10
2018-01-14T13:12:51.637Z,15.03
2018-01-14T13:15:22.780Z,14.33
2018-01-14T13:17:53.048Z,13.53
2018-01-14T13:20:23.711Z,12.17
2018-01-14T13:22:56.153Z,14.03
2018-01-14T13:25:29.366Z,10.17
2018-01-14T13:28:02.326Z,10.47
2018-01-14T13:30:43.021Z,13.50
2018-01-14T13:33:14.481Z,11.53
2018-01-14T13:35:47.207Z,13.60
2018-01-14T13:38:18.570Z,10.20
2018-01-14T13:40:49.993Z,14.53
2018-01-14T13:43:20.580Z,12.70
2018-01-14T13:45:52.113Z,12.17
2018-01-14T13:48:23.079Z,14.80
2018-01-14T13:50:58.019Z,11.00
2018-01-14T13:53:28.906Z,9.30
2018-01-14T13:56:11.394Z,11.80
2018-01-14T13:58:41.745Z,14.23
2018-01-14T14:01:12.981Z,12.83
2018-01-14T14:03:43.143Z,12.50
2018-01-14T14:06:14.936Z,11.80
2018-01-14T14:08:45.388Z,11.60
2018-01-14T14:11:16.785Z,14.03
2018-01-14T14:14:01.721Z,14.57
2018-01-14T14:16:32.317Z,13.23
2018-01-14T14:19:02.772Z,12.03
2018-01-14T14:21:34.206Z,12.07
2018-01-14T14:24:05.307Z,13.00
2018-01-14T14:26:36.142Z,12.83
2018-01-14T14:29:08.163Z,9.97
2018-01-14T14:31:39.888Z,13.43
2018-01-14T14:34:10.937Z,15.00
2018-01-14T14:36:41.719Z,11.30
2018-01-14T14:41:47.830Z,9.60
2018-01-14T16:27:41.884Z,15.50
2018-01-14T16:30:12.548Z,12.93
2018-01-14T16:32:44.264Z,10.87
2018-01-14T16:38:12.855Z,11.83
2018-01-14T16:40:43.797Z,14.70
2018-01-14T16:43:45.052Z,11.93
2018-01-14T16:46:15.405Z,14.77
2018-01-14T16:49:02.780Z,11.27
2018-01-14T16:51:45.559Z,14.60
2018-01-14T17:01:57.182Z,11.60
2018-01-14T17:05:04.356Z,16.90
2018-01-14T17:08:29.405Z,13.60
2018-01-14T17:11:12.929Z,14.00
2018-01-14T17:13:43.270Z,13.13
2018-01-14T17:16:14.416Z,12.97
2018-01-14T17:18:45.278Z,15.83
2018-01-14T17:21:15.434Z,11.03
2018-01-14T17:23:45.646Z,16.20
2018-01-14T17:26:15.839Z,13.47
2018-01-14T17:28:45.936Z,16.47
2018-01-14T17:31:16.825Z,15.33
2018-01-14T17:33:46.894Z,14.80
2018-01-14T17:36:18.181Z,16.37
2018-01-14T17:38:48.277Z,17.53
2018-01-14T17:41:18.631Z,16.67
2018-01-14T17:43:49.223Z,21.43
2018-01-14T17:46:19.406Z,13.57
2018-01-14T17:48:49.873Z,23.27
2018-01-14T17:51:20.062Z,19.60
2018-01-14T17:53:50.153Z,17.63
2018-01-14T17:56:20.233Z,13.40
2018-01-14T17:58:50.339Z,16.80
2018-01-14T18:01:21.572Z,11.77
2018-01-14T18:03:55.378Z,14.70
2018-01-14T18:06:25.627Z,15.70
2018-01-14T18:08:57.161Z,11.93
2018-01-14T18:11:30.265Z,15.33
2018-01-14T18:14:00.356Z,15.97
2018-01-14T18:16:31.821Z,15.07
2018-01-14T18:19:02.362Z,11.77
2018-01-14T18:21:33.117Z,27.73
2018-01-14T18:24:04.569Z,33.87
2018-01-14T18:26:35.357Z,23.60
2018-01-14T18:29:06.503Z,13.67
2018-01-14T18:31:37.604Z,16.73
2018-01-14T18:34:07.891Z,17.73
2018-01-14T18:36:38.210Z,19.17
2018-01-14T18:39:08.697Z,13.80
2018-01-14T18:41:38.952Z,19.60
2018-01-14T18:44:09.433Z,14.90
2018-01-14T18:46:39.614Z,13.33
2018-01-14T18:49:09.681Z,18.07
2018-01-14T18:51:41.267Z,12.47
2018-01-14T18:54:12.255Z,12.10
2018-01-14T18:56:42.482Z,16.43
2018-01-14T18:59:13.814Z,15.40
2018-01-14T19:01:43.889Z,10.57
2018-01-14T19:04:14.799Z,11.90
2018-01-14T19:06:44.956Z,14.43
2018-01-14T19:09:22.837Z,28.60
2018-01-14T19:11:53.825Z,18.03
2018-01-14T19:14:27.058Z,15.10
2018-01-14T19:17:04.738Z,15.27
2018-01-14T19:19:35.446Z,15.77
2018-01-14T19:22:15.612Z,17.10
2018-01-14T19:24:48.455Z,17.10
2018-01-14T19:27:18.936Z,17.00
2018-01-14T19:29:50.793Z,15.90
2018-01-14T19:32:21.178Z,19.53
2018-01-14T19:34:51.509Z,22.87
2018-01-14T19:37:22.391Z,23.30
2018-01-14T19:39:53.880Z,19.10
2018-01-14T19:42:25.864Z,24.20
2018-01-14T19:44:57.582Z,14.50
2018-01-14T19:47:28.238Z,18.87
2018-01-14T19:49:59.753Z,15.63
2018-01-14T19:52:30.370Z,16.70
2018-01-14T19:55:00.810Z,16.97
2018-01-14T19:57:31.128Z,19.43
2018-01-14T20:00:01.430Z,14.73
2018-01-14T20:02:32.890Z,16.77
2018-01-14T20:05:04.370Z,15.40
2018-01-14T20:07:36.302Z,23.60
2018-01-14T20:10:07.927Z,19.30
2018-01-14T20:12:39.062Z,19.13
2018-01-14T20:15:09.514Z,15.70
2018-01-14T20:17:39.819Z,19.60
2018-01-14T20:20:11.744Z,17.30
2018-01-14T20:22:42.207Z,29.37
2018-01-14T20:25:13.855Z,12.90
2018-01-14T20:27:43.991Z,13.17
2018-01-14T20:30:14.531Z,19.63
2018-01-14T20:32:45.509Z,12.70
2018-01-14T20:35:16.583Z,16.53
2018-01-14T20:37:46.941Z,18.97
2018-01-14T20:40:18.800Z,13.87
2018-01-14T20:42:49.266Z,16.57
2018-01-14T20:45:20.434Z,15.63
2018-01-14T20:47:50.683Z,13.63
2018-01-14T20:50:21.249Z,17.73
2018-01-14T20:52:52.693Z,14.63
2018-01-14T20:55:24.199Z,15.83
2018-01-14T20:57:55.417Z,18.23
2018-01-14T21:00:26.741Z,20.10
2018-01-14T21:02:59.419Z,19.47
2018-01-14T21:05:33.629Z,15.80
2018-01-14T21:08:04.079Z,19.47
2018-01-14T21:10:35.097Z,18.43
2018-01-14T21:13:07.618Z,15.53
2018-01-14T21:15:37.872Z,12.20
2018-01-14T21:18:08.429Z,15.13
2018-01-14T21:20:39.009Z,25.47
2018-01-14T21:23:09.336Z,20.53
2018-01-14T21:25:39.893Z,18.83
2018-01-14T21:28:10.013Z,21.93
2018-01-14T21:30:40.810Z,19.80
2018-01-14T21:33:11.282Z,21.07
2018-01-14T21:35:42.887Z,15.10
2018-01-14T21:38:13.194Z,22.63
2018-01-14T21:40:43.446Z,12.70
2018-01-14T21:43:13.633Z,17.53
2018-01-14T21:45:44.888Z,18.50
2018-01-14T21:48:15.909Z,19.13
2018-01-14T21:50:47.244Z,15.30
2018-01-14T21:53:19.499Z,15.83
2018-01-14T21:55:49.830Z,16.00
2018-01-14T21:58:20.273Z,18.70
2018-01-14T22:00:55.974Z,13.87
2018-01-14T22:03:28.472Z,15.13
2018-01-14T22:05:58.843Z,16.83
2018-01-14T22:08:29.470Z,17.03
2018-01-14T22:10:59.751Z,17.60
2018-01-14T22:13:30.070Z,16.30
2018-01-14T22:16:01.545Z,17.27
2018-01-14T22:18:32.259Z,16.17
2018-01-14T22:21:02.419Z,14.63
2018-01-14T22:23:32.477Z,19.00
2018-01-14T22:26:03.377Z,14.47
2018-01-14T22:28:33.978Z,16.17
2018-01-14T22:31:04.847Z,18.93
2018-01-14T22:33:35.267Z,12.77
2018-01-14T22:36:06.096Z,15.67
2018-01-14T22:38:36.632Z,21.00
2018-01-14T22:41:08.126Z,20.43
2018-01-14T22:43:38.220Z,14.00
2018-01-14T22:46:08.291Z,22.87
2018-01-14T22:48:38.598Z,15.37
2018-01-14T22:51:09.249Z,15.70
2018-01-14T22:53:40.336Z,20.40
2018-01-14T22:56:10.369Z,15.50
2018-01-14T22:58:41.221Z,14.27
2018-01-14T23:01:11.592Z,15.70
2018-01-14T23:03:41.894Z,13.57
2018-01-14T23:06:12.974Z,16.43
2018-01-14T23:08:43.006Z,12.63
2018-01-14T23:11:13.305Z,13.90
2018-01-14T23:13:44.410Z,15.77
2018-01-14T23:16:14.661Z,11.40
2018-01-14T23:18:44.844Z,9.00
2018-01-14T23:21:14.980Z,16.70
2018-01-14T23:23:45.850Z,13.10
2018-01-14T23:26:16.190Z,13.60
2018-01-14T23:28:46.601Z,11.80
2018-01-14T23:31:17.005Z,14.63
2018-01-14T23:33:47.261Z,12.27
2018-01-14T23:36:17.742Z,13.70
2018-01-14T23:38:48.737Z,17.90
2018-01-14T23:41:19.173Z,17.80
2018-01-14T23:43:49.432Z,13.10
2018-01-14T23:46:19.697Z,15.57
2018-01-14T23:48:50.294Z,12.80
2018-01-14T23:51:22.233Z,10.73
2018-01-14T23:53:53.224Z,11.10
2018-01-14T23:56:24.237Z,18.20
2018-01-14T23:58:55.662Z,13.23
